Time;durP1;ratioP1;P1;durP2;ratioP2;P2;SDS_P1;SDS_P2;PMS_P1;PMS_P2;Temp;Humidity;BMP_temperature;BMP_pressure;BME280_temperature;BME280_humidity;BME280_pressure;Samples;Min_cycle;Max_cycle;Signal;HPM_P1;HPM_P2
2023/09/17 00:04:26;;;;;;;17.13;10.23;;;;;;;;;;10556321;28;20423;-77
2023/09/17 00:09:31;;;;;;;18.70;10.32;;;;;;;;;;10543144;28;20419;-77
2023/09/17 00:14:39;;;;;;;18.77;10.70;;;;;;;;;;10558605;28;20420;-78
2023/09/17 00:19:51;;;;;;;15.88;10.15;;;;;;;;;;10548958;27;20424;-77
2023/09/17 00:25:09;;;;;;;15.65;9.82;;;;;;;;;;10573263;27;20516;-78
2023/09/17 00:30:14;;;;;;;17.92;10.20;;;;;;;;;;10569662;27;20416;-78
2023/09/17 00:35:22;;;;;;;18.77;10.23;;;;;;;;;;10572851;27;20510;-78
2023/09/17 00:40:29;;;;;;;17.13;10.50;;;;;;;;;;10573345;27;20473;-77
2023/09/17 00:45:40;;;;;;;18.55;10.38;;;;;;;;;;10542001;27;20508;-77
2023/09/17 00:50:53;;;;;;;17.52;10.32;;;;;;;;;;10568544;27;20944;-78
2023/09/17 00:56:00;;;;;;;17.73;10.60;;;;;;;;;;10552495;27;20430;-76
2023/09/17 01:01:06;;;;;;;18.57;10.77;;;;;;;;;;10550006;28;20629;-78
2023/09/17 01:06:24;;;;;;;19.15;11.32;;;;;;;;;;10553785;27;20438;-77
2023/09/17 01:11:37;;;;;;;17.80;11.00;;;;;;;;;;10551615;27;20899;-79
2023/09/17 01:16:53;;;;;;;19.90;10.68;;;;;;;;;;10567088;27;20496;-79
2023/09/17 01:22:03;;;;;;;18.05;10.77;;;;;;;;;;10559707;27;20944;-80
2023/09/17 01:27:10;;;;;;;17.38;11.05;;;;;;;;;;10538769;28;20846;-78
2023/09/17 01:32:16;;;;;;;17.50;10.90;;;;;;;;;;10569675;27;20519;-79
2023/09/17 01:37:24;;;;;;;16.08;9.55;;;;;;;;;;10567226;27;20957;-78
2023/09/17 01:42:32;;;;;;;12.87;8.27;;;;;;;;;;10551102;27;20424;-78
2023/09/17 01:47:36;;;;;;;12.82;8.00;;;;;;;;;;10569154;27;20467;-78
2023/09/17 01:52:46;;;;;;;11.63;6.80;;;;;;;;;;10545871;27;20503;-79
2023/09/17 01:57:57;;;;;;;13.50;9.15;;;;;;;;;;10564452;28;20527;-78
2023/09/17 02:03:18;;;;;;;14.45;8.77;;;;;;;;;;10565645;27;20562;-78
2023/09/17 02:08:23;;;;;;;15.02;8.50;;;;;;;;;;10547570;28;21012;-78
2023/09/17 02:13:30;;;;;;;15.23;8.27;;;;;;;;;;10551394;27;20432;-77
2023/09/17 02:18:34;;;;;;;14.10;8.38;;;;;;;;;;10548083;27;20467;-77
2023/09/17 02:23:38;;;;;;;13.77;8.07;;;;;;;;;;10564444;28;20618;-77
2023/09/17 02:28:47;;;;;;;14.05;8.38;;;;;;;;;;10565118;27;20428;-77
2023/09/17 02:34:21;;;;;;;14.05;8.63;;;;;;;;;;10558973;27;20414;-77
2023/09/17 02:39:26;;;;;;;13.27;8.03;;;;;;;;;;10542557;28;20432;-79
2023/09/17 02:44:31;;;;;;;13.38;8.40;;;;;;;;;;10553878;27;20428;-80
2023/09/17 02:49:35;;;;;;;14.98;8.82;;;;;;;;;;10550041;27;20431;-78
2023/09/17 02:54:44;;;;;;;13.60;8.35;;;;;;;;;;10569943;27;20452;-78
2023/09/17 02:59:51;;;;;;;16.63;8.87;;;;;;;;;;10565537;27;20519;-77
2023/09/17 03:05:09;;;;;;;13.48;8.27;;;;;;;;;;10561855;27;20594;-77
2023/09/17 03:10:18;;;;;;;15.43;8.60;;;;;;;;;;10545652;27;20412;-78
2023/09/17 03:15:34;;;;;;;14.75;8.30;;;;;;;;;;10560210;27;20420;-79
2023/09/17 03:20:40;;;;;;;12.10;7.50;;;;;;;;;;10543316;27;20427;-78
2023/09/17 03:25:47;;;;;;;12.63;7.90;;;;;;;;;;10558822;27;20423;-78
2023/09/17 03:30:52;;;;;;;15.13;7.57;;;;;;;;;;10565540;27;20562;-77
2023/09/17 03:36:03;;;;;;;12.50;7.88;;;;;;;;;;10563719;27;20408;-79
2023/09/17 03:41:12;;;;;;;12.50;7.40;;;;;;;;;;10546232;28;20833;-77
2023/09/17 03:46:25;;;;;;;10.82;6.93;;;;;;;;;;10564496;28;20520;-77
2023/09/17 03:51:30;;;;;;;11.73;7.33;;;;;;;;;;10537258;28;20453;-78
2023/09/17 03:56:34;;;;;;;12.60;6.33;;;;;;;;;;10557940;27;20425;-78
2023/09/17 04:01:46;;;;;;;9.80;6.50;;;;;;;;;;10560781;28;20826;-78
2023/09/17 04:06:56;;;;;;;10.35;6.45;;;;;;;;;;10528621;27;20420;-78
2023/09/17 04:12:04;;;;;;;10.17;5.93;;;;;;;;;;10566320;28;20416;-78
2023/09/17 04:17:11;;;;;;;10.23;6.40;;;;;;;;;;10541422;28;20415;-77
2023/09/17 04:22:25;;;;;;;10.73;6.07;;;;;;;;;;10562627;28;21012;-77
2023/09/17 04:27:30;;;;;;;10.05;6.38;;;;;;;;;;10552432;28;20433;-77
2023/09/17 04:32:48;;;;;;;10.48;6.35;;;;;;;;;;10568530;28;20773;-76
2023/09/17 04:37:55;;;;;;;9.32;5.90;;;;;;;;;;10551550;28;20470;-76
2023/09/17 04:43:03;;;;;;;9.93;6.03;;;;;;;;;;10567889;28;20822;-77
2023/09/17 04:48:17;;;;;;;10.38;6.03;;;;;;;;;;10572686;28;20459;-78
2023/09/17 04:53:22;;;;;;;9.82;6.10;;;;;;;;;;10559075;28;20431;-77
2023/09/17 04:58:35;;;;;;;11.93;6.15;;;;;;;;;;10555930;28;20412;-77
2023/09/17 05:03:43;;;;;;;10.52;5.53;;;;;;;;;;10544204;28;20416;-77
2023/09/17 05:08:54;;;;;;;10.38;6.05;;;;;;;;;;10556723;27;20427;-77
2023/09/17 05:14:05;;;;;;;9.57;5.78;;;;;;;;;;10548474;27;20833;-77
2023/09/17 05:19:16;;;;;;;10.53;5.73;;;;;;;;;;10558779;27;20422;-77
2023/09/17 05:24:21;;;;;;;8.97;5.57;;;;;;;;;;10555237;27;20431;-77
2023/09/17 05:29:31;;;;;;;8.67;5.57;;;;;;;;;;10564645;27;20463;-77
2023/09/17 05:34:45;;;;;;;9.97;5.43;;;;;;;;;;10543663;28;20803;-79
2023/09/17 05:39:53;;;;;;;8.27;5.28;;;;;;;;;;10558056;27;20419;-80
2023/09/17 05:45:04;;;;;;;8.23;5.47;;;;;;;;;;10561833;28;20432;-80
2023/09/17 05:50:15;;;;;;;9.15;4.97;;;;;;;;;;10527141;28;20448;-80
2023/09/17 05:55:26;;;;;;;8.10;5.27;;;;;;;;;;10547363;28;20428;-80
2023/09/17 06:05:57;;;;;;;10.65;5.45;;;;;;;;;;10544612;27;20428;-80
2023/09/17 06:11:02;;;;;;;10.43;5.50;;;;;;;;;;10552722;27;20439;-79
2023/09/17 06:16:09;;;;;;;8.85;4.97;;;;;;;;;;10558846;27;20954;-80
2023/09/17 06:21:21;;;;;;;7.88;4.28;;;;;;;;;;10535998;27;20497;-81
2023/09/17 06:26:35;;;;;;;10.90;4.53;;;;;;;;;;10544375;27;20447;-81
2023/09/17 06:32:04;;;;;;;6.70;4.13;;;;;;;;;;10558906;27;20420;-79
2023/09/17 06:37:14;;;;;;;8.70;4.50;;;;;;;;;;10563570;27;20914;-80
2023/09/17 06:42:20;;;;;;;8.40;4.30;;;;;;;;;;10570918;27;20523;-80
2023/09/17 06:47:42;;;;;;;5.57;3.80;;;;;;;;;;10567046;27;20490;-79
2023/09/17 06:52:50;;;;;;;7.22;4.03;;;;;;;;;;10568608;27;20424;-79
2023/09/17 06:57:57;;;;;;;7.30;3.85;;;;;;;;;;10564016;27;20749;-79
2023/09/17 07:03:09;;;;;;;8.88;4.88;;;;;;;;;;10560423;27;20459;-80
2023/09/17 07:08:27;;;;;;;5.57;3.90;;;;;;;;;;10553225;27;20412;-80
2023/09/17 07:13:40;;;;;;;6.93;3.97;;;;;;;;;;10547551;27;20435;-80
2023/09/17 07:18:50;;;;;;;6.17;3.60;;;;;;;;;;10531979;27;20931;-80
2023/09/17 07:24:03;;;;;;;4.33;3.43;;;;;;;;;;10569590;27;20509;-81
2023/09/17 07:29:09;;;;;;;5.97;3.80;;;;;;;;;;10546060;27;20456;-81
2023/09/17 07:34:23;;;;;;;4.72;3.53;;;;;;;;;;10568003;27;20591;-80
2023/09/17 07:39:35;;;;;;;6.23;3.50;;;;;;;;;;10570772;27;20509;-85
2023/09/17 07:44:53;;;;;;;6.05;3.50;;;;;;;;;;10572574;27;20420;-83
2023/09/17 07:50:17;;;;;;;7.00;3.77;;;;;;;;;;10568481;27;20867;-83
2023/09/17 07:55:29;;;;;;;4.47;3.63;;;;;;;;;;10567241;27;20420;-83
2023/09/17 08:00:39;;;;;;;5.22;3.30;;;;;;;;;;10567222;27;20422;-83
2023/09/17 08:06:13;;;;;;;4.47;3.50;;;;;;;;;;10567320;27;20615;-83
2023/09/17 08:11:37;;;;;;;3.97;3.10;;;;;;;;;;10566567;28;20539;-84
2023/09/17 08:16:51;;;;;;;3.88;3.30;;;;;;;;;;10532360;28;20899;-84
2023/09/17 08:22:03;;;;;;;3.95;3.13;;;;;;;;;;10576061;28;20412;-84
2023/09/17 08:27:16;;;;;;;4.03;3.00;;;;;;;;;;10539387;28;20510;-84
2023/09/17 08:32:27;;;;;;;5.27;3.10;;;;;;;;;;10547475;28;20416;-85
2023/09/17 08:37:41;;;;;;;3.05;2.72;;;;;;;;;;10525863;28;20427;-84
2023/09/17 08:42:50;;;;;;;3.95;3.10;;;;;;;;;;10570786;27;20427;-84
2023/09/17 08:48:00;;;;;;;4.17;3.57;;;;;;;;;;10556996;27;20786;-84
2023/09/17 08:53:14;;;;;;;4.13;3.55;;;;;;;;;;10570598;27;20785;-85
2023/09/17 08:58:44;;;;;;;3.70;3.10;;;;;;;;;;10571269;28;20877;-85
2023/09/17 09:04:04;;;;;;;3.53;3.00;;;;;;;;;;10559545;27;20455;-85
2023/09/17 09:09:18;;;;;;;3.83;2.95;;;;;;;;;;10553510;27;20424;-85
2023/09/17 09:14:51;;;;;;;5.30;3.60;;;;;;;;;;10574150;27;20419;-85
2023/09/17 09:20:05;;;;;;;3.85;3.47;;;;;;;;;;10569931;27;20426;-86
2023/09/17 09:25:16;;;;;;;4.07;3.60;;;;;;;;;;10570738;28;20412;-86
2023/09/17 09:30:28;;;;;;;4.30;3.70;;;;;;;;;;10564871;27;20477;-86
2023/09/17 09:35:42;;;;;;;4.32;3.92;;;;;;;;;;10560959;27;20439;-87
2023/09/17 09:40:51;;;;;;;5.88;3.97;;;;;;;;;;10574216;27;20455;-86
2023/09/17 09:46:00;;;;;;;4.60;3.90;;;;;;;;;;10556697;27;20900;-86
2023/09/17 09:51:07;;;;;;;4.40;4.00;;;;;;;;;;10538214;27;20428;-83
2023/09/17 09:56:12;;;;;;;3.25;2.90;;;;;;;;;;10571410;27;20417;-86
2023/09/17 10:01:19;;;;;;;3.53;2.92;;;;;;;;;;10553217;27;20489;-85
2023/09/17 10:06:30;;;;;;;4.22;2.80;;;;;;;;;;10552533;27;20432;-85
2023/09/17 10:11:39;;;;;;;6.63;4.90;;;;;;;;;;10575419;27;20431;-84
2023/09/17 10:16:54;;;;;;;4.70;3.30;;;;;;;;;;10573848;27;20440;-84
2023/09/17 10:22:03;;;;;;;5.30;3.60;;;;;;;;;;10555959;27;20558;-84
2023/09/17 10:27:27;;;;;;;5.27;4.27;;;;;;;;;;10553312;27;20510;-85
2023/09/17 10:32:46;;;;;;;5.80;3.70;;;;;;;;;;10575429;27;20793;-84
2023/09/17 10:38:05;;;;;;;4.30;3.90;;;;;;;;;;10555460;27;20530;-81
2023/09/17 10:43:11;;;;;;;4.93;3.25;;;;;;;;;;10546901;27;20976;-81
2023/09/17 10:48:17;;;;;;;4.40;4.00;;;;;;;;;;10562514;27;20459;-81
2023/09/17 10:53:25;;;;;;;4.63;3.45;;;;;;;;;;10569007;27;20504;-81
2023/09/17 10:58:39;;;;;;;3.93;3.57;;;;;;;;;;10592858;27;20438;-85
2023/09/17 11:03:51;;;;;;;4.45;3.60;;;;;;;;;;10604642;28;20452;-84
2023/09/17 11:08:59;;;;;;;3.97;3.50;;;;;;;;;;10595359;27;20423;-82
2023/09/17 11:14:04;;;;;;;5.87;3.13;;;;;;;;;;10574317;27;20414;-84
2023/09/17 11:19:10;;;;;;;4.00;3.40;;;;;;;;;;10576430;27;20799;-84
2023/09/17 11:24:17;;;;;;;3.83;3.47;;;;;;;;;;10576074;27;20412;-85
2023/09/17 11:35:24;;;;;;;5.82;3.70;;;;;;;;;;10580277;27;20764;-83
2023/09/17 11:40:36;;;;;;;3.97;3.60;;;;;;;;;;10580665;27;20423;-83
2023/09/17 11:45:44;;;;;;;4.75;3.80;;;;;;;;;;10562690;28;20462;-82
2023/09/17 11:51:19;;;;;;;3.47;3.13;;;;;;;;;;10579495;28;20430;-82
2023/09/17 11:56:29;;;;;;;3.72;3.20;;;;;;;;;;10571549;28;20436;-84
2023/09/17 12:01:56;;;;;;;3.60;2.95;;;;;;;;;;10536436;28;20424;-85
2023/09/17 12:07:02;;;;;;;4.57;3.80;;;;;;;;;;10568202;28;20943;-86
2023/09/17 12:12:11;;;;;;;4.03;3.40;;;;;;;;;;10566266;27;20432;-84
2023/09/17 12:17:18;;;;;;;3.30;3.00;;;;;;;;;;10568968;28;20428;-85
2023/09/17 12:22:24;;;;;;;3.30;3.00;;;;;;;;;;10571588;28;20680;-85
2023/09/17 12:27:55;;;;;;;4.17;2.90;;;;;;;;;;10569689;28;20428;-84
2023/09/17 12:33:01;;;;;;;3.70;3.30;;;;;;;;;;10586956;28;20456;-83
2023/09/17 12:38:08;;;;;;;4.23;3.30;;;;;;;;;;10592559;28;20508;-84
2023/09/17 12:43:28;;;;;;;3.53;3.07;;;;;;;;;;10563510;28;20430;-85
2023/09/17 12:48:37;;;;;;;5.05;3.10;;;;;;;;;;10544807;28;20446;-85
2023/09/17 12:54:02;;;;;;;4.03;3.08;;;;;;;;;;10552779;28;20461;-84
2023/09/17 12:59:27;;;;;;;4.20;3.30;;;;;;;;;;10554524;28;20840;-89
2023/09/17 13:04:40;;;;;;;4.60;3.47;;;;;;;;;;10563905;28;21007;-85
2023/09/17 13:09:56;;;;;;;4.07;3.30;;;;;;;;;;10547634;28;20515;-87
2023/09/17 13:15:10;;;;;;;5.03;3.15;;;;;;;;;;10557775;28;20466;-83
2023/09/17 13:20:23;;;;;;;3.30;2.83;;;;;;;;;;10563857;28;20424;-83
2023/09/17 13:25:37;;;;;;;4.13;2.97;;;;;;;;;;10569771;27;20445;-83
2023/09/17 13:31:05;;;;;;;5.05;3.13;;;;;;;;;;10570624;27;20428;-84
2023/09/17 13:36:17;;;;;;;3.92;3.08;;;;;;;;;;10553106;27;20765;-84
2023/09/17 13:41:28;;;;;;;4.00;3.22;;;;;;;;;;10541305;27;20577;-85
2023/09/17 13:46:39;;;;;;;5.07;3.33;;;;;;;;;;10566374;27;20420;-85
2023/09/17 13:51:48;;;;;;;5.43;3.50;;;;;;;;;;10534750;28;20428;-85
2023/09/17 13:56:54;;;;;;;3.25;2.90;;;;;;;;;;10553103;28;20428;-85
2023/09/17 14:01:58;;;;;;;5.70;3.38;;;;;;;;;;10566322;27;20432;-84
2023/09/17 14:07:04;;;;;;;4.13;3.10;;;;;;;;;;10550508;27;20492;-84
2023/09/17 14:17:38;;;;;;;4.20;3.10;;;;;;;;;;10570325;27;20424;-84
2023/09/17 14:22:52;;;;;;;5.18;2.75;;;;;;;;;;10570993;27;20508;-83
2023/09/17 14:28:18;;;;;;;3.30;2.70;;;;;;;;;;10565236;27;20418;-82
2023/09/17 14:33:30;;;;;;;3.67;2.83;;;;;;;;;;10562960;27;20527;-83
2023/09/17 14:38:44;;;;;;;4.20;3.00;;;;;;;;;;10572555;27;20566;-83
2023/09/17 14:43:48;;;;;;;3.40;2.67;;;;;;;;;;10561579;27;20464;-83
2023/09/17 14:48:59;;;;;;;4.97;3.28;;;;;;;;;;10548506;27;20503;-83
2023/09/17 14:54:13;;;;;;;3.97;2.70;;;;;;;;;;10554377;27;20439;-83
2023/09/17 14:59:35;;;;;;;3.92;2.70;;;;;;;;;;10566369;27;20408;-83
2023/09/17 15:04:43;;;;;;;4.00;2.50;;;;;;;;;;10570118;27;20416;-83
2023/09/17 15:09:53;;;;;;;2.97;2.50;;;;;;;;;;10581516;27;20448;-83
2023/09/17 15:15:02;;;;;;;3.22;2.60;;;;;;;;;;10590817;27;20451;-82
2023/09/17 15:20:09;;;;;;;3.93;2.77;;;;;;;;;;10586556;27;20792;-82
2023/09/17 15:25:27;;;;;;;3.22;2.42;;;;;;;;;;10604930;27;20485;-81
2023/09/17 15:30:35;;;;;;;3.93;2.80;;;;;;;;;;10567833;27;20419;-82
2023/09/17 15:35:48;;;;;;;3.65;2.60;;;;;;;;;;10606656;27;20489;-81
2023/09/17 15:41:06;;;;;;;3.70;2.78;;;;;;;;;;10571706;27;20582;-81
2023/09/17 15:46:11;;;;;;;4.77;3.00;;;;;;;;;;10589271;27;20420;-82
2023/09/17 15:51:22;;;;;;;5.10;3.10;;;;;;;;;;10555468;28;20516;-82
2023/09/17 15:56:52;;;;;;;4.65;2.70;;;;;;;;;;10553401;27;20428;-84
2023/09/17 16:01:57;;;;;;;6.50;4.80;;;;;;;;;;10571031;27;20517;-83
2023/09/17 16:07:08;;;;;;;3.88;3.05;;;;;;;;;;10571858;27;20923;-82
2023/09/17 16:12:15;;;;;;;6.53;3.00;;;;;;;;;;10551017;28;20831;-81
2023/09/17 16:17:26;;;;;;;5.87;2.97;;;;;;;;;;10547230;28;20431;-81
2023/09/17 16:27:50;;;;;;;5.97;3.40;;;;;;;;;;10560982;28;20420;-81
2023/09/17 16:33:18;;;;;;;5.93;3.30;;;;;;;;;;10536999;28;20431;-82
2023/09/17 16:38:23;;;;;;;4.97;3.40;;;;;;;;;;10564158;28;20418;-80
2023/09/17 16:43:57;;;;;;;7.30;4.10;;;;;;;;;;10546215;28;20913;-81
2023/09/17 16:54:34;;;;;;;5.25;3.50;;;;;;;;;;10564786;28;20511;-79
2023/09/17 16:59:40;;;;;;;4.60;3.40;;;;;;;;;;10558384;27;20811;-81
2023/09/17 17:05:07;;;;;;;7.75;3.80;;;;;;;;;;10579101;27;20434;-82
2023/09/17 17:10:18;;;;;;;5.18;3.67;;;;;;;;;;10575059;27;20432;-82
2023/09/17 17:15:44;;;;;;;5.90;3.87;;;;;;;;;;10573914;27;20803;-81
2023/09/17 17:20:54;;;;;;;5.90;3.50;;;;;;;;;;10572759;27;20440;-81
2023/09/17 17:26:03;;;;;;;7.13;4.00;;;;;;;;;;10574519;27;20501;-82
2023/09/17 17:31:09;;;;;;;5.67;3.67;;;;;;;;;;10550977;28;20525;-81
2023/09/17 17:36:18;;;;;;;7.20;3.85;;;;;;;;;;10553870;28;20788;-82
2023/09/17 17:41:42;;;;;;;8.13;3.75;;;;;;;;;;10542825;28;20435;-81
2023/09/17 17:46:52;;;;;;;7.13;4.22;;;;;;;;;;10544724;27;20430;-81
2023/09/17 17:52:20;;;;;;;7.28;4.45;;;;;;;;;;10577972;27;20416;-81
2023/09/17 17:57:37;;;;;;;8.02;4.70;;;;;;;;;;10553356;28;20416;-82
2023/09/17 18:02:45;;;;;;;9.30;4.40;;;;;;;;;;10567827;27;20428;-81
2023/09/17 18:07:53;;;;;;;7.43;4.60;;;;;;;;;;10569167;27;20412;-80
2023/09/17 18:13:01;;;;;;;8.80;4.73;;;;;;;;;;10554452;27;20429;-82
2023/09/17 18:18:12;;;;;;;7.88;4.30;;;;;;;;;;10553420;28;20485;-81
2023/09/17 18:23:24;;;;;;;7.18;4.30;;;;;;;;;;10567276;28;20488;-82
2023/09/17 18:28:50;;;;;;;7.53;4.07;;;;;;;;;;10554317;28;20424;-82
2023/09/17 18:33:56;;;;;;;5.73;3.73;;;;;;;;;;10573438;28;20420;-81
2023/09/17 18:39:26;;;;;;;8.32;4.10;;;;;;;;;;10571100;28;21339;-81
2023/09/17 18:44:42;;;;;;;7.15;3.75;;;;;;;;;;10571904;27;20915;-81
2023/09/17 18:55:16;;;;;;;6.50;4.40;;;;;;;;;;10577756;27;20436;-81
2023/09/17 19:00:31;;;;;;;7.77;4.23;;;;;;;;;;10554538;27;20419;-81
2023/09/17 19:05:44;;;;;;;7.50;4.47;;;;;;;;;;10567969;27;20428;-81
2023/09/17 19:10:57;;;;;;;8.13;4.67;;;;;;;;;;10572211;27;20451;-81
2023/09/17 19:16:20;;;;;;;8.35;4.22;;;;;;;;;;10573670;27;20477;-82
2023/09/17 19:21:30;;;;;;;7.25;4.40;;;;;;;;;;10537088;28;20424;-81
2023/09/17 19:26:42;;;;;;;7.27;4.20;;;;;;;;;;10569684;28;20412;-81
2023/09/17 19:32:03;;;;;;;6.77;4.40;;;;;;;;;;10528415;27;20801;-84
2023/09/17 19:37:11;;;;;;;6.80;4.13;;;;;;;;;;10570260;27;20500;-80
2023/09/17 19:42:16;;;;;;;8.23;4.70;;;;;;;;;;10561637;28;20427;-80
2023/09/17 19:47:33;;;;;;;7.33;4.63;;;;;;;;;;10547434;27;20474;-82
2023/09/17 19:52:46;;;;;;;6.93;4.10;;;;;;;;;;10563587;27;20740;-82
2023/09/17 19:57:55;;;;;;;6.45;4.10;;;;;;;;;;10563997;27;20429;-82
2023/09/17 20:08:37;;;;;;;6.82;4.60;;;;;;;;;;10596012;27;20426;-82
2023/09/17 20:13:41;;;;;;;5.70;3.80;;;;;;;;;;10560032;28;20435;-82
2023/09/17 20:18:44;;;;;;;6.72;3.90;;;;;;;;;;10549671;28;20419;-80
2023/09/17 20:23:48;;;;;;;6.55;4.05;;;;;;;;;;10547315;28;20488;-78
2023/09/17 20:28:51;;;;;;;7.27;4.17;;;;;;;;;;10545860;28;20516;-78
2023/09/17 20:33:54;;;;;;;7.03;4.60;;;;;;;;;;10552123;28;20435;-80
2023/09/17 20:38:58;;;;;;;7.25;4.47;;;;;;;;;;10544190;28;20431;-78
2023/09/17 20:44:01;;;;;;;7.47;4.47;;;;;;;;;;10554192;28;20433;-79
2023/09/17 20:49:04;;;;;;;7.22;4.53;;;;;;;;;;10564348;28;20431;-79
2023/09/17 20:54:08;;;;;;;8.93;5.17;;;;;;;;;;10553962;28;20986;-78
2023/09/17 20:59:11;;;;;;;7.45;4.85;;;;;;;;;;10563152;28;20476;-79
2023/09/17 21:04:13;;;;;;;8.03;4.50;;;;;;;;;;10572686;28;20419;-80
2023/09/17 21:09:27;;;;;;;8.07;5.47;;;;;;;;;;10566129;28;20490;-78
2023/09/17 21:14:29;;;;;;;7.95;4.80;;;;;;;;;;10551790;28;21202;-78
2023/09/17 21:19:32;;;;;;;8.10;5.22;;;;;;;;;;10537492;28;20479;-78
2023/09/17 21:24:36;;;;;;;7.63;4.77;;;;;;;;;;10537673;28;20900;-77
2023/09/17 21:29:38;;;;;;;7.65;4.68;;;;;;;;;;10532288;28;20952;-78
2023/09/17 21:34:41;;;;;;;8.50;4.65;;;;;;;;;;10534306;28;20792;-78
2023/09/17 21:39:45;;;;;;;7.97;4.63;;;;;;;;;;10531850;28;20774;-79
2023/09/17 21:44:48;;;;;;;8.05;4.80;;;;;;;;;;10521777;28;20461;-79
2023/09/17 21:49:50;;;;;;;7.77;4.60;;;;;;;;;;10539949;28;20475;-78
2023/09/17 21:54:54;;;;;;;8.20;4.97;;;;;;;;;;10538128;28;20422;-78
2023/09/17 21:59:57;;;;;;;8.33;5.10;;;;;;;;;;10528839;28;20434;-78
2023/09/17 22:04:59;;;;;;;8.10;4.90;;;;;;;;;;10531406;28;20490;-79
2023/09/17 22:10:04;;;;;;;8.30;4.90;;;;;;;;;;10534931;28;20423;-78
2023/09/17 22:15:07;;;;;;;9.68;5.30;;;;;;;;;;10523411;28;20429;-78
2023/09/17 22:20:18;;;;;;;7.93;5.22;;;;;;;;;;10535965;28;20425;-78
2023/09/17 22:25:22;;;;;;;9.13;5.07;;;;;;;;;;10536489;28;20477;-79
2023/09/17 22:30:25;;;;;;;7.93;4.73;;;;;;;;;;10527119;28;20479;-77
2023/09/17 22:35:28;;;;;;;9.50;5.30;;;;;;;;;;10539585;28;20430;-77
2023/09/17 22:40:32;;;;;;;8.47;4.97;;;;;;;;;;10527999;28;20422;-77
2023/09/17 22:45:37;;;;;;;8.63;4.90;;;;;;;;;;10528727;28;20507;-78
2023/09/17 22:50:40;;;;;;;8.77;4.88;;;;;;;;;;10532385;28;20496;-78
2023/09/17 22:55:44;;;;;;;8.23;4.57;;;;;;;;;;10528076;28;20415;-79
2023/09/17 23:00:47;;;;;;;8.27;4.90;;;;;;;;;;10519884;28;20486;-77
2023/09/17 23:05:49;;;;;;;8.18;4.80;;;;;;;;;;10535023;28;20845;-77
2023/09/17 23:10:59;;;;;;;7.80;4.60;;;;;;;;;;10527528;28;20416;-77
2023/09/17 23:16:03;;;;;;;8.30;3.75;;;;;;;;;;10528278;28;20511;-76
2023/09/17 23:21:06;;;;;;;9.07;3.83;;;;;;;;;;10527718;28;20418;-77
2023/09/17 23:26:12;;;;;;;7.93;4.10;;;;;;;;;;10512963;28;20570;-77
2023/09/17 23:31:16;;;;;;;6.18;3.90;;;;;;;;;;10528333;28;20426;-77
2023/09/17 23:36:20;;;;;;;7.40;3.93;;;;;;;;;;10536764;28;20535;-78
2023/09/17 23:41:24;;;;;;;6.45;3.78;;;;;;;;;;10533338;28;20432;-79
2023/09/17 23:46:26;;;;;;;6.37;3.90;;;;;;;;;;10538483;28;20414;-78
2023/09/17 23:51:29;;;;;;;6.45;3.70;;;;;;;;;;10541658;28;20424;-78
2023/09/17 23:56:33;;;;;;;6.40;3.90;;;;;;;;;;10559148;28;20435;-78
